Time;durP1;ratioP1;P1;durP2;ratioP2;P2;SDS_P1;SDS_P2;PMS_P1;PMS_P2;Temp;Humidity;BMP_temperature;BMP_pressure;BME280_temperature;BME280_humidity;BME280_pressure;Samples;Min_cycle;Max_cycle;Signal;HPM_P1;HPM_P2
2023/07/17 00:00:15;;;;;;;5.77;3.83;;;21.40;99.80;;;;;;5088007;28;20453;-69
2023/07/17 00:02:42;;;;;;;4.43;3.27;;;21.40;99.90;;;;;;5090691;28;20259;-69
2023/07/17 00:05:09;;;;;;;5.70;3.97;;;21.30;99.90;;;;;;5087371;28;20405;-68
2023/07/17 00:07:35;;;;;;;7.23;4.50;;;21.40;99.90;;;;;;5090185;28;20506;-69
2023/07/17 00:10:03;;;;;;;4.57;4.10;;;21.40;99.90;;;;;;5092338;28;21018;-69
2023/07/17 00:12:30;;;;;;;5.53;4.40;;;21.40;99.90;;;;;;5084896;28;20168;-68
2023/07/17 00:14:55;;;;;;;6.30;5.00;;;21.40;99.90;;;;;;5090887;28;20405;-68
2023/07/17 00:17:21;;;;;;;4.83;4.33;;;21.40;99.90;;;;;;5086788;28;20423;-68
2023/07/17 00:19:54;;;;;;;4.63;3.80;;;21.30;99.90;;;;;;5092820;28;20283;-68
2023/07/17 00:22:20;;;;;;;5.07;3.70;;;21.30;99.90;;;;;;5086990;28;20646;-68
2023/07/17 00:24:46;;;;;;;4.73;4.23;;;21.30;99.90;;;;;;5092669;28;20887;-67
2023/07/17 00:27:12;;;;;;;5.33;4.20;;;21.30;99.90;;;;;;5086523;28;20412;-68
2023/07/17 00:29:37;;;;;;;4.83;4.27;;;21.40;99.90;;;;;;5092134;28;20254;-68
2023/07/17 00:32:03;;;;;;;4.17;3.53;;;21.40;99.90;;;;;;5068390;28;20185;-67
2023/07/17 00:34:28;;;;;;;4.43;2.97;;;21.30;99.90;;;;;;5088579;28;20195;-70
2023/07/17 00:36:54;;;;;;;3.90;3.10;;;21.30;99.90;;;;;;5092593;28;20266;-69
2023/07/17 00:39:20;;;;;;;4.20;3.47;;;21.30;99.90;;;;;;5085488;28;20199;-67
2023/07/17 00:41:46;;;;;;;6.10;4.07;;;21.20;99.90;;;;;;5094738;28;20200;-69
2023/07/17 00:44:12;;;;;;;4.77;3.53;;;21.20;99.90;;;;;;5093889;28;20244;-70
2023/07/17 00:46:37;;;;;;;4.90;3.00;;;21.30;99.90;;;;;;5092751;28;20405;-69
2023/07/17 00:49:06;;;;;;;3.27;2.97;;;21.20;99.90;;;;;;5098617;28;20275;-69
2023/07/17 00:51:32;;;;;;;7.30;4.00;;;21.20;99.90;;;;;;5087076;28;20176;-70
2023/07/17 00:53:59;;;;;;;4.07;3.70;;;21.20;99.90;;;;;;5089422;28;20904;-69
2023/07/17 00:56:27;;;;;;;4.30;3.43;;;21.20;99.90;;;;;;5089646;28;20729;-68
2023/07/17 00:58:53;;;;;;;4.57;3.77;;;21.20;99.90;;;;;;5089099;28;20500;-68
2023/07/17 01:01:19;;;;;;;3.97;3.20;;;21.20;99.90;;;;;;5093116;28;20778;-69
2023/07/17 01:03:45;;;;;;;4.93;3.73;;;21.20;99.90;;;;;;5092365;28;20179;-68
2023/07/17 01:06:11;;;;;;;4.07;3.50;;;21.20;99.90;;;;;;5090331;28;20176;-68
2023/07/17 01:08:36;;;;;;;4.83;3.87;;;21.20;99.90;;;;;;5086842;28;20414;-69
2023/07/17 01:11:02;;;;;;;6.00;4.00;;;21.20;99.90;;;;;;5095939;28;20182;-66
2023/07/17 01:13:28;;;;;;;5.60;3.40;;;21.20;99.90;;;;;;5086236;28;20169;-69
2023/07/17 01:15:53;;;;;;;3.47;2.83;;;21.10;99.90;;;;;;5088983;28;20992;-67
2023/07/17 01:18:19;;;;;;;7.33;4.00;;;21.20;99.90;;;;;;5090981;28;20199;-68
2023/07/17 01:20:45;;;;;;;4.33;3.90;;;21.20;99.90;;;;;;5087806;28;20266;-68
2023/07/17 01:23:10;;;;;;;3.87;3.57;;;21.30;99.90;;;;;;5072037;28;20171;-66
2023/07/17 01:25:36;;;;;;;3.77;2.80;;;21.40;99.90;;;;;;5068004;28;20423;-69
2023/07/17 01:28:02;;;;;;;4.20;3.10;;;21.40;99.90;;;;;;5068304;28;20193;-69
2023/07/17 01:30:28;;;;;;;6.43;3.50;;;21.40;99.90;;;;;;5087823;28;20202;-68
2023/07/17 01:32:53;;;;;;;3.77;3.00;;;21.40;99.90;;;;;;5086480;28;20414;-68
2023/07/17 01:35:19;;;;;;;5.53;3.30;;;21.40;99.90;;;;;;5090836;28;20183;-68
2023/07/17 01:37:44;;;;;;;3.33;2.87;;;21.40;99.90;;;;;;5069388;28;20234;-68
2023/07/17 01:40:14;;;;;;;3.50;3.20;;;21.30;99.90;;;;;;5088749;28;20203;-70
2023/07/17 01:42:39;;;;;;;3.50;2.77;;;21.30;99.90;;;;;;5086619;28;20226;-69
2023/07/17 01:45:05;;;;;;;3.53;3.23;;;21.40;99.90;;;;;;5088788;28;20773;-69
2023/07/17 01:47:31;;;;;;;3.57;3.07;;;21.40;99.90;;;;;;5087495;28;20174;-69
2023/07/17 01:49:56;;;;;;;3.77;2.87;;;21.40;99.90;;;;;;5086437;28;20426;-71
2023/07/17 01:52:22;;;;;;;5.67;3.67;;;21.30;99.90;;;;;;5091252;28;20197;-69
2023/07/17 01:54:48;;;;;;;4.90;3.20;;;21.30;99.90;;;;;;5087939;28;20260;-69
2023/07/17 01:57:13;;;;;;;3.43;2.60;;;21.30;99.90;;;;;;5090105;28;20211;-67
2023/07/17 01:59:39;;;;;;;5.07;3.80;;;21.20;99.90;;;;;;5086984;28;20194;-70
2023/07/17 02:02:05;;;;;;;3.83;3.50;;;21.20;99.90;;;;;;5089272;28;20309;-69
2023/07/17 02:04:31;;;;;;;6.30;3.20;;;21.20;99.90;;;;;;5065154;28;20174;-68
2023/07/17 02:06:56;;;;;;;4.40;3.80;;;21.20;99.90;;;;;;5088302;28;20403;-68
2023/07/17 02:09:23;;;;;;;5.73;4.00;;;21.20;99.90;;;;;;5090359;28;20308;-69
2023/07/17 02:11:48;;;;;;;5.33;3.50;;;21.30;99.90;;;;;;5092074;28;20163;-69
2023/07/17 02:14:14;;;;;;;3.67;3.10;;;21.20;99.90;;;;;;5090004;28;20527;-66
2023/07/17 02:16:39;;;;;;;4.90;3.43;;;21.20;99.90;;;;;;5073213;28;20181;-69
2023/07/17 02:19:05;;;;;;;5.20;3.50;;;21.10;99.90;;;;;;5086877;28;20232;-69
2023/07/17 02:21:31;;;;;;;4.83;3.53;;;21.20;99.90;;;;;;5083662;28;20221;-69
2023/07/17 02:23:57;;;;;;;5.07;3.80;;;21.00;99.90;;;;;;5092322;28;20167;-68
2023/07/17 02:26:23;;;;;;;4.07;3.70;;;21.00;99.90;;;;;;5087818;28;20173;-68
2023/07/17 02:28:49;;;;;;;6.57;3.90;;;20.90;99.90;;;;;;5089756;28;20912;-68
2023/07/17 02:31:15;;;;;;;5.80;3.50;;;20.90;99.90;;;;;;5068050;28;20417;-69
2023/07/17 02:33:40;;;;;;;5.33;3.03;;;20.90;99.90;;;;;;5088404;28;20572;-69
2023/07/17 02:36:06;;;;;;;4.70;3.50;;;20.80;99.90;;;;;;5090517;28;20177;-69
2023/07/17 02:38:31;;;;;;;5.00;3.13;;;20.70;99.90;;;;;;5090871;28;20180;-68
2023/07/17 02:40:57;;;;;;;4.03;3.00;;;20.50;99.90;;;;;;5092850;28;20672;-69
2023/07/17 02:43:23;;;;;;;4.30;3.30;;;20.50;99.90;;;;;;5089234;28;20200;-67
2023/07/17 02:45:48;;;;;;;4.30;3.53;;;20.40;99.90;;;;;;5091940;28;20638;-68
2023/07/17 02:48:14;;;;;;;6.80;3.10;;;20.40;99.90;;;;;;5094159;28;20303;-69
2023/07/17 02:50:40;;;;;;;4.30;3.07;;;20.50;99.90;;;;;;5090580;28;20190;-69
2023/07/17 02:53:05;;;;;;;5.43;3.80;;;20.40;99.90;;;;;;5093009;28;20644;-68
2023/07/17 02:55:31;;;;;;;6.40;3.40;;;20.20;99.90;;;;;;5089640;28;20176;-67
2023/07/17 02:57:57;;;;;;;4.27;3.27;;;20.10;99.90;;;;;;5091899;28;20177;-68
2023/07/17 03:00:22;;;;;;;4.90;3.50;;;20.10;99.90;;;;;;5088527;28;20758;-67
2023/07/17 03:02:48;;;;;;;3.33;2.50;;;20.00;99.90;;;;;;5091443;28;20206;-69
2023/07/17 03:05:14;;;;;;;4.80;3.03;;;20.10;99.90;;;;;;5093570;28;20186;-69
2023/07/17 03:07:43;;;;;;;5.80;3.00;;;20.10;99.90;;;;;;5090471;28;20427;-69
2023/07/17 03:10:10;;;;;;;4.13;3.27;;;19.90;99.90;;;;;;5067112;28;20462;-68
2023/07/17 03:12:36;;;;;;;5.03;3.30;;;19.90;99.90;;;;;;5090048;28;20446;-69
2023/07/17 03:15:04;;;;;;;6.77;2.97;;;19.90;99.90;;;;;;5092573;28;20749;-69
2023/07/17 03:17:30;;;;;;;7.10;3.20;;;19.90;99.90;;;;;;5075957;28;20561;-69
2023/07/17 03:19:55;;;;;;;4.87;3.53;;;19.80;99.90;;;;;;5091064;28;20529;-68
2023/07/17 03:22:21;;;;;;;3.40;3.10;;;19.80;99.90;;;;;;5093980;28;20190;-69
2023/07/17 03:24:46;;;;;;;3.93;3.20;;;19.80;99.90;;;;;;5089100;28;20186;-68
2023/07/17 03:27:12;;;;;;;4.50;3.60;;;19.90;99.90;;;;;;5091440;28;20169;-69
2023/07/17 03:29:37;;;;;;;6.43;3.10;;;19.90;99.90;;;;;;5094327;28;20339;-68
2023/07/17 03:32:04;;;;;;;3.27;2.97;;;19.90;99.90;;;;;;5090239;28;20183;-69
2023/07/17 03:34:29;;;;;;;4.27;3.50;;;19.90;99.90;;;;;;5092809;28;20207;-69
2023/07/17 03:36:55;;;;;;;4.17;3.77;;;19.90;99.90;;;;;;5089767;28;20409;-68
2023/07/17 03:39:20;;;;;;;4.77;3.70;;;19.80;99.90;;;;;;5091823;28;20202;-67
2023/07/17 03:41:46;;;;;;;4.00;3.33;;;19.80;99.90;;;;;;5089071;28;20534;-69
2023/07/17 03:44:12;;;;;;;4.83;4.20;;;19.80;99.90;;;;;;5090353;28;20188;-69
2023/07/17 03:46:38;;;;;;;4.07;3.70;;;19.90;99.90;;;;;;5093557;28;20168;-68
2023/07/17 03:49:03;;;;;;;4.37;3.30;;;19.90;99.90;;;;;;5088970;28;20445;-67
2023/07/17 03:51:29;;;;;;;4.40;3.80;;;19.90;99.90;;;;;;5092291;28;20174;-68
2023/07/17 03:53:55;;;;;;;4.17;3.47;;;19.90;99.90;;;;;;5089420;28;20616;-68
2023/07/17 03:56:20;;;;;;;5.30;3.70;;;19.90;99.90;;;;;;5091681;28;20685;-69
2023/07/17 03:58:47;;;;;;;5.53;3.60;;;20.00;99.90;;;;;;5087968;28;20182;-69
2023/07/17 04:01:13;;;;;;;4.20;3.90;;;20.20;99.90;;;;;;5090131;28;20171;-70
2023/07/17 04:03:38;;;;;;;6.70;3.10;;;20.10;99.90;;;;;;5093203;28;20456;-69
2023/07/17 04:06:04;;;;;;;5.73;4.67;;;20.10;99.90;;;;;;5089096;28;20177;-68
2023/07/17 04:08:29;;;;;;;7.50;4.00;;;20.20;99.90;;;;;;5073812;28;20207;-68
2023/07/17 04:10:55;;;;;;;5.93;4.20;;;20.30;99.90;;;;;;5088472;28;20367;-68
2023/07/17 04:13:21;;;;;;;5.83;3.50;;;20.40;99.90;;;;;;5091019;28;20364;-69
2023/07/17 04:15:48;;;;;;;4.70;3.57;;;20.50;99.90;;;;;;5087965;28;20169;-69
2023/07/17 04:18:14;;;;;;;5.90;3.80;;;20.40;99.90;;;;;;5091654;28;20179;-68
2023/07/17 04:20:41;;;;;;;3.93;3.63;;;20.60;99.90;;;;;;5093108;28;20474;-67
2023/07/17 04:23:08;;;;;;;7.67;3.50;;;20.70;99.90;;;;;;5089310;28;20857;-69
2023/07/17 04:25:37;;;;;;;3.67;3.37;;;20.80;99.90;;;;;;5089433;28;20411;-67
2023/07/17 04:28:03;;;;;;;6.77;4.23;;;20.70;99.90;;;;;;5080943;28;20455;-70
2023/07/17 04:30:29;;;;;;;4.57;4.03;;;20.60;99.90;;;;;;5086528;28;20462;-70
2023/07/17 04:32:55;;;;;;;4.47;3.60;;;20.50;99.90;;;;;;5096948;28;20412;-69
2023/07/17 04:35:21;;;;;;;4.13;3.73;;;20.30;99.90;;;;;;5088294;28;20177;-69
2023/07/17 04:37:46;;;;;;;4.37;3.80;;;20.60;99.90;;;;;;5091412;28;20307;-69
2023/07/17 04:40:12;;;;;;;5.80;4.30;;;20.60;99.90;;;;;;5069397;28;20524;-68
2023/07/17 04:42:38;;;;;;;5.77;4.10;;;20.90;99.90;;;;;;5070135;28;20163;-70
2023/07/17 04:45:05;;;;;;;4.70;3.43;;;21.20;99.90;;;;;;5093783;28;20886;-71
2023/07/17 04:47:31;;;;;;;5.60;4.47;;;21.10;99.90;;;;;;5093120;28;20398;-68
2023/07/17 04:49:57;;;;;;;4.27;3.87;;;21.00;99.90;;;;;;5098230;28;20464;-69
2023/07/17 04:52:23;;;;;;;7.23;4.80;;;21.00;99.90;;;;;;5096197;28;20416;-68
2023/07/17 04:54:48;;;;;;;4.07;3.43;;;21.20;99.90;;;;;;5071832;28;20169;-69
2023/07/17 04:57:14;;;;;;;5.70;3.63;;;21.50;99.90;;;;;;5080333;28;20203;-70
2023/07/17 04:59:39;;;;;;;6.30;4.10;;;21.80;99.90;;;;;;5096360;28;20364;-69
2023/07/17 05:02:05;;;;;;;4.10;3.70;;;21.90;99.90;;;;;;5097450;28;20646;-69
2023/07/17 05:04:31;;;;;;;3.97;3.57;;;22.30;99.90;;;;;;5086135;28;20165;-70
2023/07/17 05:06:57;;;;;;;5.37;4.00;;;22.50;99.90;;;;;;5088976;28;20292;-69
2023/07/17 05:09:26;;;;;;;6.07;4.40;;;22.80;99.90;;;;;;5091000;28;20298;-69
2023/07/17 05:11:52;;;;;;;4.30;3.77;;;22.60;99.90;;;;;;5072953;28;20409;-69
2023/07/17 05:14:18;;;;;;;5.90;4.10;;;22.50;99.90;;;;;;5091984;28;20413;-68
2023/07/17 05:16:44;;;;;;;5.20;3.90;;;22.40;99.90;;;;;;5088621;28;20171;-68
2023/07/17 05:19:09;;;;;;;6.03;4.40;;;22.50;99.90;;;;;;5094693;28;20662;-69
2023/07/17 05:21:35;;;;;;;6.23;3.80;;;22.50;99.90;;;;;;5094466;28;20405;-69
2023/07/17 05:24:01;;;;;;;5.90;4.20;;;22.30;99.90;;;;;;5093124;28;20164;-71
2023/07/17 05:26:26;;;;;;;4.37;3.97;;;21.80;99.90;;;;;;5093967;28;20163;-71
2023/07/17 05:28:53;;;;;;;4.63;4.03;;;21.70;99.90;;;;;;5090079;28;20173;-69
2023/07/17 05:31:19;;;;;;;9.10;4.83;;;21.50;99.90;;;;;;5092698;28;20184;-69
2023/07/17 05:33:45;;;;;;;5.63;4.53;;;21.60;99.90;;;;;;5095566;28;20419;-69
2023/07/17 05:36:10;;;;;;;5.33;3.80;;;22.00;99.90;;;;;;5090964;28;20177;-70
2023/07/17 05:38:36;;;;;;;4.60;4.20;;;22.30;99.90;;;;;;5091710;28;20270;-69
2023/07/17 05:41:02;;;;;;;5.60;3.70;;;22.50;99.90;;;;;;5088898;28;20235;-70
2023/07/17 05:43:30;;;;;;;7.27;3.70;;;23.00;99.90;;;;;;5058713;28;20639;-68
2023/07/17 05:45:56;;;;;;;5.30;3.53;;;23.40;99.90;;;;;;5094119;28;20423;-69
2023/07/17 05:48:22;;;;;;;4.33;3.20;;;23.90;99.90;;;;;;5075026;28;20499;-68
2023/07/17 05:50:47;;;;;;;4.50;3.70;;;24.00;99.90;;;;;;5076555;28;20200;-69
2023/07/17 05:53:13;;;;;;;4.67;4.20;;;24.70;99.90;;;;;;5093455;28;20314;-70
2023/07/17 05:55:39;;;;;;;4.17;3.77;;;25.10;99.40;;;;;;5098121;28;20190;-69
2023/07/17 05:58:04;;;;;;;6.60;3.40;;;24.60;99.00;;;;;;5104429;28;20173;-66
2023/07/17 06:00:30;;;;;;;5.40;4.20;;;24.70;99.20;;;;;;5093070;28;20204;-68
2023/07/17 06:02:56;;;;;;;9.50;4.00;;;24.70;98.60;;;;;;5098131;28;20174;-68
2023/07/17 06:05:21;;;;;;;6.10;4.20;;;24.80;98.70;;;;;;5072161;28;20189;-68
2023/07/17 06:07:47;;;;;;;4.37;3.77;;;24.80;98.90;;;;;;5084730;28;20202;-67
2023/07/17 06:10:13;;;;;;;4.60;4.00;;;24.60;98.30;;;;;;5094573;28;20236;-68
2023/07/17 06:12:42;;;;;;;3.50;3.20;;;24.70;98.70;;;;;;5098493;28;20177;-69
2023/07/17 06:15:09;;;;;;;4.80;4.10;;;25.70;97.50;;;;;;5095909;28;20169;-70
2023/07/17 06:17:35;;;;;;;7.03;4.63;;;25.40;97.30;;;;;;5081682;28;20512;-68
2023/07/17 06:20:04;;;;;;;4.40;4.00;;;26.40;96.90;;;;;;5102442;28;20469;-69
2023/07/17 06:22:29;;;;;;;6.83;3.97;;;26.70;96.40;;;;;;5074687;28;20503;-68
2023/07/17 06:24:55;;;;;;;4.60;3.50;;;26.40;95.10;;;;;;5095270;28;20430;-67
2023/07/17 06:27:21;;;;;;;5.00;3.47;;;26.70;94.70;;;;;;5096951;28;20713;-69
2023/07/17 06:29:46;;;;;;;4.70;3.50;;;26.90;94.70;;;;;;5074886;28;20247;-69
2023/07/17 06:32:12;;;;;;;5.17;3.50;;;26.70;94.20;;;;;;5093091;28;20249;-69
2023/07/17 06:34:37;;;;;;;3.87;3.50;;;26.80;94.20;;;;;;5091115;28;20617;-68
2023/07/17 06:37:04;;;;;;;6.70;3.60;;;26.70;94.40;;;;;;5086358;28;20452;-70
2023/07/17 06:39:29;;;;;;;5.53;3.90;;;26.50;94.70;;;;;;5088782;28;20209;-69
2023/07/17 06:41:55;;;;;;;7.47;4.03;;;26.50;94.80;;;;;;5085497;28;20426;-68
2023/07/17 06:44:21;;;;;;;5.80;3.97;;;26.40;94.30;;;;;;5088060;28;20181;-69
2023/07/17 06:46:46;;;;;;;10.57;5.43;;;26.30;94.30;;;;;;5090559;28;20780;-69
2023/07/17 06:49:12;;;;;;;4.87;3.70;;;26.10;94.40;;;;;;5085991;28;20352;-67
2023/07/17 06:51:38;;;;;;;4.37;3.90;;;25.70;95.50;;;;;;5072012;28;20535;-68
2023/07/17 06:54:03;;;;;;;5.03;4.37;;;25.10;95.10;;;;;;5086133;28;20169;-70
2023/07/17 06:56:29;;;;;;;5.53;3.77;;;25.10;95.20;;;;;;5067009;28;20181;-69
2023/07/17 06:58:54;;;;;;;4.10;3.80;;;24.70;96.20;;;;;;5084388;28;20289;-68
2023/07/17 07:01:20;;;;;;;6.70;4.20;;;25.10;95.70;;;;;;5088505;28;20170;-69
2023/07/17 07:03:45;;;;;;;6.23;4.30;;;26.50;95.00;;;;;;5091222;28;20189;-69
2023/07/17 07:06:11;;;;;;;4.47;4.07;;;26.60;93.80;;;;;;5086089;28;20574;-66
2023/07/17 07:08:37;;;;;;;5.80;3.83;;;27.00;93.30;;;;;;5090891;28;20174;-69
2023/07/17 07:11:03;;;;;;;4.53;3.90;;;27.00;93.40;;;;;;5087176;28;20174;-69
2023/07/17 07:13:29;;;;;;;5.50;3.47;;;27.30;92.50;;;;;;5071173;28;20210;-70
2023/07/17 07:15:54;;;;;;;6.80;3.50;;;27.60;93.00;;;;;;5085675;28;20970;-71
2023/07/17 07:18:21;;;;;;;5.93;3.97;;;27.80;92.00;;;;;;5090971;28;20415;-70
2023/07/17 07:20:47;;;;;;;5.00;3.40;;;27.20;92.50;;;;;;5090821;28;20239;-70
2023/07/17 07:23:13;;;;;;;4.27;3.50;;;27.10;92.30;;;;;;5086825;28;20415;-68
2023/07/17 07:25:39;;;;;;;8.03;4.07;;;27.30;93.00;;;;;;5089054;28;20439;-69
2023/07/17 07:28:05;;;;;;;5.53;4.40;;;28.00;92.50;;;;;;5095451;28;20467;-70
2023/07/17 07:30:31;;;;;;;4.27;3.30;;;28.60;90.90;;;;;;5059117;28;20208;-69
2023/07/17 07:32:57;;;;;;;4.57;4.17;;;28.30;91.90;;;;;;5093413;28;20178;-68
2023/07/17 07:35:22;;;;;;;4.13;3.73;;;27.70;91.00;;;;;;5094241;28;20480;-70
2023/07/17 07:37:48;;;;;;;5.60;4.10;;;28.10;91.80;;;;;;5067515;28;20184;-69
2023/07/17 07:40:15;;;;;;;6.07;4.23;;;28.30;90.30;;;;;;5092823;28;20211;-70
2023/07/17 07:42:41;;;;;;;4.70;4.30;;;29.20;91.40;;;;;;5088037;28;20170;-70
2023/07/17 07:45:07;;;;;;;8.63;4.03;;;29.40;87.60;;;;;;5094012;28;20909;-70
2023/07/17 07:47:32;;;;;;;5.37;4.27;;;28.70;86.90;;;;;;5090817;28;20404;-69
2023/07/17 07:49:59;;;;;;;4.40;3.47;;;29.10;88.10;;;;;;5093047;28;20434;-69
2023/07/17 07:52:25;;;;;;;5.53;3.90;;;28.90;87.80;;;;;;5091827;28;20182;-70
2023/07/17 07:54:50;;;;;;;5.40;3.53;;;29.00;87.90;;;;;;5090697;28;21134;-70
2023/07/17 07:57:16;;;;;;;5.30;3.83;;;28.90;88.20;;;;;;5094524;28;20200;-68
2023/07/17 07:59:41;;;;;;;6.67;3.97;;;29.10;85.70;;;;;;5091496;28;20209;-70
2023/07/17 08:02:09;;;;;;;5.13;3.63;;;29.70;87.80;;;;;;5094231;28;20169;-70
2023/07/17 08:04:34;;;;;;;4.67;3.90;;;29.70;85.70;;;;;;5090129;28;20174;-70
2023/07/17 08:07:00;;;;;;;5.70;3.97;;;30.10;86.60;;;;;;5093345;28;20502;-70
2023/07/17 08:09:26;;;;;;;6.77;3.30;;;29.70;84.40;;;;;;5091643;28;20214;-70
2023/07/17 08:11:52;;;;;;;3.60;3.20;;;30.70;82.10;;;;;;5090867;28;20177;-70
2023/07/17 08:14:20;;;;;;;5.83;4.00;;;30.30;83.50;;;;;;5092275;28;20536;-70
2023/07/17 08:16:47;;;;;;;7.10;4.17;;;30.10;82.40;;;;;;5088291;28;20954;-69
2023/07/17 08:19:13;;;;;;;4.70;3.93;;;30.70;81.50;;;;;;5077679;28;20968;-70
2023/07/17 08:21:39;;;;;;;5.40;3.80;;;31.50;78.80;;;;;;5091485;28;20409;-69
2023/07/17 08:24:05;;;;;;;7.93;4.63;;;30.30;80.20;;;;;;5054188;28;20180;-70
2023/07/17 08:26:31;;;;;;;4.70;4.00;;;30.30;81.30;;;;;;5092348;28;20169;-70
2023/07/17 08:28:57;;;;;;;4.90;3.70;;;31.40;78.60;;;;;;5089954;28;20545;-70
2023/07/17 08:31:23;;;;;;;4.90;4.30;;;31.20;80.40;;;;;;5090839;28;20515;-70
2023/07/17 08:33:49;;;;;;;5.20;3.50;;;31.20;81.80;;;;;;5089084;28;20496;-68
2023/07/17 08:36:14;;;;;;;4.13;3.73;;;30.90;78.60;;;;;;5088940;28;20415;-71
2023/07/17 08:38:40;;;;;;;4.20;3.70;;;30.50;79.80;;;;;;5091722;28;20178;-70
2023/07/17 08:41:07;;;;;;;7.70;4.27;;;31.20;76.60;;;;;;5089801;28;20261;-67
2023/07/17 08:43:34;;;;;;;4.10;3.70;;;31.90;77.40;;;;;;5073777;28;20180;-70
2023/07/17 08:46:00;;;;;;;4.13;3.30;;;32.00;75.40;;;;;;5088451;28;20921;-68
2023/07/17 08:48:26;;;;;;;5.47;3.60;;;31.40;74.60;;;;;;5090938;28;20424;-70
2023/07/17 08:50:52;;;;;;;5.17;3.63;;;31.10;77.30;;;;;;5092713;28;20208;-71
2023/07/17 08:53:21;;;;;;;4.10;3.10;;;32.00;74.20;;;;;;5085608;28;20422;-69
2023/07/17 08:55:48;;;;;;;5.67;3.27;;;31.90;75.20;;;;;;5093147;28;20412;-71
2023/07/17 08:58:13;;;;;;;5.07;3.63;;;32.00;75.00;;;;;;5089173;28;20927;-71
2023/07/17 09:00:39;;;;;;;4.30;3.43;;;32.70;72.50;;;;;;5091143;28;20451;-71
2023/07/17 09:03:05;;;;;;;4.73;3.00;;;32.40;74.40;;;;;;5088018;28;20186;-71
2023/07/17 09:05:31;;;;;;;4.97;3.80;;;32.40;73.90;;;;;;5085545;28;20169;-70
2023/07/17 09:07:57;;;;;;;3.07;2.77;;;32.60;73.10;;;;;;5074873;28;20449;-70
2023/07/17 09:10:23;;;;;;;3.03;2.83;;;31.90;69.80;;;;;;5089473;28;20365;-68
2023/07/17 09:12:59;;;;;;;5.20;3.60;;;31.00;72.20;;;;;;5069314;28;20269;-69
2023/07/17 09:15:27;;;;;;;4.30;3.33;;;31.40;70.80;;;;;;5073362;28;20418;-70
2023/07/17 09:17:53;;;;;;;3.97;3.13;;;31.90;72.30;;;;;;5092642;28;20758;-68
2023/07/17 09:20:19;;;;;;;3.93;3.40;;;32.40;69.70;;;;;;5092828;28;20545;-67
2023/07/17 09:22:46;;;;;;;5.17;3.40;;;31.60;70.60;;;;;;5089608;28;20169;-71
2023/07/17 09:25:13;;;;;;;9.60;3.23;;;31.80;71.60;;;;;;5087694;28;20403;-71
2023/07/17 09:27:46;;;;;;;5.37;2.70;;;32.80;69.20;;;;;;5091972;28;20943;-70
2023/07/17 09:30:13;;;;;;;3.90;2.97;;;32.80;68.10;;;;;;5086994;28;20431;-69
2023/07/17 09:32:39;;;;;;;4.03;3.30;;;32.80;68.40;;;;;;5072588;28;20971;-67
2023/07/17 09:35:07;;;;;;;8.10;3.10;;;32.40;69.20;;;;;;5093883;28;20799;-69
2023/07/17 09:37:35;;;;;;;4.63;3.00;;;31.70;68.60;;;;;;5088300;28;20822;-70
2023/07/17 09:40:11;;;;;;;4.17;3.30;;;31.80;68.50;;;;;;5093693;28;20485;-70
2023/07/17 09:42:42;;;;;;;5.93;3.03;;;31.40;68.20;;;;;;5086930;28;20716;-71
2023/07/17 09:45:11;;;;;;;4.40;2.60;;;31.90;67.60;;;;;;5093408;28;20411;-68
2023/07/17 09:47:38;;;;;;;3.87;3.57;;;31.80;66.70;;;;;;5084641;28;20798;-69
2023/07/17 09:50:04;;;;;;;3.33;3.03;;;32.20;65.20;;;;;;5092366;28;20439;-69
2023/07/17 09:52:31;;;;;;;4.73;3.13;;;32.60;65.20;;;;;;5090405;28;20480;-70
2023/07/17 09:55:00;;;;;;;6.67;3.13;;;32.50;64.80;;;;;;5090082;28;20403;-68
2023/07/17 09:57:39;;;;;;;4.53;3.53;;;32.20;63.40;;;;;;5091096;28;20803;-70
2023/07/17 10:00:11;;;;;;;4.83;3.30;;;31.50;66.90;;;;;;5088554;28;20459;-69
2023/07/17 10:02:52;;;;;;;5.07;3.80;;;31.40;66.20;;;;;;5079396;28;20533;-69
2023/07/17 10:05:18;;;;;;;5.97;3.67;;;31.30;68.60;;;;;;5085354;28;20422;-70
2023/07/17 10:07:45;;;;;;;7.47;3.97;;;31.80;65.70;;;;;;5090025;28;20422;-69
2023/07/17 10:10:11;;;;;;;4.70;3.40;;;31.00;67.80;;;;;;5086297;28;20985;-70
2023/07/17 10:12:38;;;;;;;4.63;3.43;;;31.00;68.30;;;;;;5090228;28;20508;-72
2023/07/17 10:15:05;;;;;;;5.77;3.00;;;30.40;69.00;;;;;;5086584;28;20179;-69
2023/07/17 10:17:32;;;;;;;5.63;3.07;;;29.40;68.90;;;;;;5087960;28;20411;-67
2023/07/17 10:20:04;;;;;;;4.87;3.00;;;29.80;68.90;;;;;;5084568;28;20463;-69
2023/07/17 10:22:35;;;;;;;6.90;3.53;;;30.20;67.50;;;;;;5087027;28;20422;-69
2023/07/17 10:25:18;;;;;;;3.63;3.17;;;29.60;68.10;;;;;;5085868;28;20415;-67
2023/07/17 10:27:57;;;;;;;3.30;3.00;;;29.50;68.00;;;;;;5090141;28;20403;-69
2023/07/17 10:30:33;;;;;;;6.90;3.57;;;29.20;68.10;;;;;;5083196;28;20552;-69
2023/07/17 10:33:12;;;;;;;4.00;3.23;;;28.60;71.20;;;;;;5086024;28;20439;-71
2023/07/17 10:36:04;;;;;;;5.00;2.97;;;28.20;70.20;;;;;;5081586;28;20408;-69
2023/07/17 10:38:34;;;;;;;4.27;3.07;;;28.90;70.90;;;;;;5085193;28;20425;-71
2023/07/17 10:41:10;;;;;;;4.83;3.40;;;28.80;69.90;;;;;;5085726;28;20460;-69
2023/07/17 10:43:36;;;;;;;5.73;3.53;;;28.90;69.90;;;;;;5082754;28;20864;-69
2023/07/17 10:46:08;;;;;;;8.50;3.80;;;28.20;70.70;;;;;;5085500;28;20397;-68
2023/07/17 10:48:35;;;;;;;5.30;3.40;;;28.40;70.10;;;;;;5079332;28;20415;-70
2023/07/17 10:51:00;;;;;;;6.67;3.33;;;28.40;69.20;;;;;;5087355;28;20415;-71
2023/07/17 10:53:26;;;;;;;4.17;3.30;;;28.00;70.30;;;;;;5087499;28;20415;-71
2023/07/17 10:55:52;;;;;;;4.30;2.83;;;28.30;70.30;;;;;;5070874;28;20245;-69
2023/07/17 10:58:19;;;;;;;3.53;2.60;;;28.50;69.90;;;;;;5093465;28;20184;-70
2023/07/17 11:00:45;;;;;;;8.77;3.20;;;28.90;69.60;;;;;;5093476;28;20493;-70
2023/07/17 11:03:15;;;;;;;3.90;3.10;;;28.90;70.10;;;;;;5089074;28;20786;-70
2023/07/17 11:05:42;;;;;;;3.70;2.80;;;28.90;68.90;;;;;;5094380;28;20498;-71
2023/07/17 11:08:09;;;;;;;4.40;3.07;;;28.80;69.70;;;;;;5095858;28;20406;-70
2023/07/17 11:10:35;;;;;;;3.73;2.47;;;28.60;69.70;;;;;;5091106;28;20474;-70
2023/07/17 11:13:04;;;;;;;5.77;2.60;;;28.50;68.20;;;;;;5075342;28;20534;-70
2023/07/17 11:15:33;;;;;;;6.53;2.77;;;28.50;67.20;;;;;;5089822;28;20415;-70
2023/07/17 11:18:00;;;;;;;5.13;3.20;;;27.80;69.90;;;;;;5091870;28;20842;-69
2023/07/17 11:20:27;;;;;;;3.87;3.03;;;27.80;71.50;;;;;;5088585;28;20474;-69
2023/07/17 11:22:53;;;;;;;4.03;3.63;;;27.90;71.30;;;;;;5090703;28;20441;-68
2023/07/17 11:25:19;;;;;;;4.80;3.03;;;28.00;71.40;;;;;;5087557;28;20411;-67
2023/07/17 11:27:46;;;;;;;6.90;3.30;;;28.00;72.60;;;;;;5093053;28;20172;-68
2023/07/17 11:30:16;;;;;;;4.53;3.30;;;28.20;70.70;;;;;;5088018;28;20812;-67
2023/07/17 11:32:41;;;;;;;4.47;3.13;;;27.90;70.50;;;;;;5091445;28;20415;-72
2023/07/17 11:35:08;;;;;;;4.40;3.27;;;28.10;71.70;;;;;;5076066;28;20962;-68
2023/07/17 11:37:37;;;;;;;8.87;3.50;;;28.20;70.50;;;;;;5088499;28;20200;-69
2023/07/17 11:40:07;;;;;;;4.30;3.00;;;28.50;70.60;;;;;;5094371;28;20488;-68
2023/07/17 11:42:56;;;;;;;4.40;2.43;;;28.60;68.80;;;;;;5087365;28;20779;-67
2023/07/17 11:45:26;;;;;;;4.90;2.70;;;28.70;66.40;;;;;;5091850;28;20418;-68
2023/07/17 11:47:55;;;;;;;11.73;3.30;;;28.50;67.70;;;;;;5088451;28;20847;-68
2023/07/17 11:50:24;;;;;;;5.17;2.80;;;28.70;67.50;;;;;;5093827;28;20446;-70
2023/07/17 11:53:03;;;;;;;2.47;2.27;;;29.00;66.80;;;;;;5090267;28;20413;-69
2023/07/17 11:55:41;;;;;;;3.90;2.37;;;29.00;65.70;;;;;;5092541;28;20410;-69
2023/07/17 11:58:16;;;;;;;5.73;3.00;;;28.80;66.00;;;;;;5093799;28;20494;-69
2023/07/17 12:00:46;;;;;;;5.53;2.60;;;28.90;65.20;;;;;;5086770;28;20461;-69
2023/07/17 12:03:12;;;;;;;3.73;3.07;;;28.90;62.70;;;;;;5088563;28;20944;-69
2023/07/17 12:05:38;;;;;;;3.37;2.83;;;28.70;63.90;;;;;;5090738;28;20491;-68
2023/07/17 12:08:05;;;;;;;3.67;2.63;;;28.90;62.20;;;;;;5093968;28;20185;-69
2023/07/17 12:10:32;;;;;;;3.50;2.47;;;28.80;62.90;;;;;;5071657;28;20921;-68
2023/07/17 12:12:58;;;;;;;6.57;3.23;;;29.10;62.50;;;;;;5092973;28;20415;-70
2023/07/17 12:15:25;;;;;;;4.93;2.90;;;29.20;63.00;;;;;;5089057;28;20554;-71
2023/07/17 12:17:51;;;;;;;5.40;3.17;;;29.20;63.60;;;;;;5091306;28;20404;-68
2023/07/17 12:20:16;;;;;;;4.87;2.80;;;28.70;64.10;;;;;;5087902;28;20529;-69
2023/07/17 12:22:42;;;;;;;5.20;2.50;;;28.70;63.70;;;;;;5090239;28;20166;-67
2023/07/17 12:25:08;;;;;;;4.13;2.70;;;28.70;62.10;;;;;;5088648;28;20169;-68
2023/07/17 12:27:34;;;;;;;4.03;2.57;;;28.80;62.50;;;;;;5066933;28;20704;-69
2023/07/17 12:30:00;;;;;;;4.37;2.60;;;28.50;61.40;;;;;;5062514;28;20581;-69
2023/07/17 12:32:26;;;;;;;4.00;2.73;;;28.40;62.90;;;;;;5091774;28;20262;-69
2023/07/17 12:34:51;;;;;;;3.03;2.03;;;28.70;61.90;;;;;;5093395;28;20822;-69
2023/07/17 12:37:17;;;;;;;4.43;2.60;;;28.60;60.90;;;;;;5069381;28;20177;-66
2023/07/17 12:39:43;;;;;;;3.40;2.67;;;28.80;61.70;;;;;;5093213;28;20686;-68
2023/07/17 12:42:08;;;;;;;3.20;2.30;;;29.20;60.90;;;;;;5089453;28;20184;-70
2023/07/17 12:44:34;;;;;;;3.13;2.63;;;29.30;59.60;;;;;;5061124;28;20173;-69